Time;durP1;ratioP1;P1;durP2;ratioP2;P2;SDS_P1;SDS_P2;PMS_P1;PMS_P2;Temp;Humidity;BMP_temperature;BMP_pressure;BME280_temperature;BME280_humidity;BME280_pressure;Samples;Min_cycle;Max_cycle;Signal;HPM_P1;HPM_P2
2022/08/21 00:00:19;;;;;;;0.30;0.30;;;20.10;99.90;;;;;;5104383;28;20180;-80
2022/08/21 00:02:54;;;;;;;0.70;0.70;;;20.00;99.90;;;;;;5102782;28;20537;-80
2022/08/21 00:05:20;;;;;;;1.50;0.40;;;19.80;99.90;;;;;;5099247;28;21035;-80
2022/08/21 00:07:46;;;;;;;0.43;0.43;;;19.70;99.90;;;;;;5111005;28;20202;-80
2022/08/21 00:10:12;;;;;;;0.30;0.30;;;19.60;99.90;;;;;;5104893;28;20199;-80
2022/08/21 00:12:39;;;;;;;0.50;0.50;;;19.40;99.90;;;;;;5114965;28;20236;-80
2022/08/21 00:15:06;;;;;;;0.70;0.47;;;19.30;99.90;;;;;;5095378;28;20188;-80
2022/08/21 00:17:32;;;;;;;0.50;0.43;;;19.40;99.90;;;;;;5109389;28;20204;-80
2022/08/21 00:19:57;;;;;;;0.40;0.40;;;19.40;99.90;;;;;;5099610;28;20614;-79
2022/08/21 00:22:23;;;;;;;0.20;0.20;;;19.40;99.90;;;;;;5106884;28;20195;-80
2022/08/21 00:24:49;;;;;;;0.23;0.23;;;19.40;99.90;;;;;;5105744;27;20175;-79
2022/08/21 00:27:15;;;;;;;0.30;0.30;;;19.40;99.90;;;;;;5104013;28;20329;-80
2022/08/21 00:29:40;;;;;;;0.60;0.50;;;19.40;99.90;;;;;;5104039;28;20218;-80
2022/08/21 00:32:07;;;;;;;0.50;0.50;;;19.40;99.90;;;;;;5103308;27;20256;-80
2022/08/21 00:34:32;;;;;;;0.40;0.40;;;19.40;99.90;;;;;;5102305;28;20189;-79
2022/08/21 00:36:58;;;;;;;0.60;0.60;;;19.50;99.90;;;;;;5116524;28;20214;-80
2022/08/21 00:39:23;;;;;;;0.50;0.50;;;19.60;99.90;;;;;;5116203;28;20223;-79
2022/08/21 00:41:49;;;;;;;0.30;0.30;;;19.60;99.90;;;;;;5105967;27;20176;-79
2022/08/21 00:44:15;;;;;;;1.50;0.60;;;19.60;99.90;;;;;;5111684;28;20189;-80
2022/08/21 00:46:42;;;;;;;0.23;0.20;;;19.60;99.90;;;;;;5114788;28;20775;-80
2022/08/21 00:49:09;;;;;;;0.27;0.27;;;19.50;99.90;;;;;;5111956;28;20212;-80
2022/08/21 00:51:48;;;;;;;3.93;0.47;;;19.40;99.90;;;;;;5115957;28;20317;-80
2022/08/21 00:54:15;;;;;;;3.20;0.80;;;19.30;99.90;;;;;;5107825;28;20194;-79
2022/08/21 00:56:41;;;;;;;0.57;0.57;;;19.20;99.90;;;;;;5106248;28;20292;-80
2022/08/21 00:59:07;;;;;;;0.50;0.50;;;19.10;99.90;;;;;;5102747;28;20198;-79
2022/08/21 01:01:33;;;;;;;0.60;0.60;;;18.90;99.90;;;;;;5106922;28;20191;-79
2022/08/21 01:03:59;;;;;;;0.30;0.30;;;18.80;99.90;;;;;;5093289;28;20188;-79
2022/08/21 01:06:24;;;;;;;0.50;0.50;;;18.70;99.90;;;;;;5093650;28;20213;-80
2022/08/21 01:08:50;;;;;;;1.17;0.73;;;18.70;99.90;;;;;;5087693;28;20204;-79
2022/08/21 01:11:16;;;;;;;0.50;0.50;;;18.70;99.90;;;;;;5095635;28;20193;-80
2022/08/21 01:13:45;;;;;;;0.30;0.30;;;18.70;99.90;;;;;;5087861;28;20191;-80
2022/08/21 01:16:15;;;;;;;0.20;0.20;;;18.60;99.90;;;;;;5096522;28;20289;-82
2022/08/21 01:18:41;;;;;;;0.20;0.20;;;18.60;99.90;;;;;;5104159;28;20768;-81
2022/08/21 01:21:14;;;;;;;0.67;0.67;;;18.60;99.90;;;;;;5099710;28;20177;-80
2022/08/21 01:23:43;;;;;;;0.40;0.40;;;18.50;99.90;;;;;;5097797;28;20226;-80
2022/08/21 01:26:10;;;;;;;0.40;0.37;;;18.60;99.90;;;;;;5107515;28;20289;-80
2022/08/21 01:28:41;;;;;;;0.47;0.33;;;18.60;99.90;;;;;;5098928;28;21030;-79
2022/08/21 01:31:09;;;;;;;0.83;0.30;;;18.50;99.90;;;;;;5093318;28;20183;-79
2022/08/21 01:33:35;;;;;;;0.50;0.50;;;18.50;99.90;;;;;;5093658;28;20189;-80
2022/08/21 01:36:01;;;;;;;0.30;0.30;;;18.50;99.90;;;;;;5104966;28;20211;-80
2022/08/21 01:38:27;;;;;;;0.20;0.20;;;18.50;99.90;;;;;;5099013;28;20194;-80
2022/08/21 01:40:52;;;;;;;0.77;0.63;;;18.50;99.90;;;;;;5085660;28;20560;-79
2022/08/21 01:43:18;;;;;;;0.30;0.30;;;18.40;99.90;;;;;;5089895;28;20275;-79
2022/08/21 01:45:43;;;;;;;0.40;0.40;;;18.40;99.90;;;;;;5091636;28;20181;-80
2022/08/21 01:48:09;;;;;;;0.43;0.43;;;18.50;99.90;;;;;;5084138;28;20183;-80
2022/08/21 01:50:35;;;;;;;0.30;0.30;;;18.50;99.90;;;;;;5101344;28;20320;-80
2022/08/21 01:53:00;;;;;;;0.57;0.57;;;18.50;99.90;;;;;;5096869;28;20647;-80
2022/08/21 01:55:26;;;;;;;0.30;0.30;;;18.40;99.90;;;;;;5093241;28;20246;-80
2022/08/21 01:57:52;;;;;;;0.27;0.27;;;18.40;99.90;;;;;;5087701;28;20271;-80
2022/08/21 02:00:24;;;;;;;0.27;0.27;;;18.40;99.90;;;;;;5100556;28;20283;-81
2022/08/21 02:02:51;;;;;;;1.17;0.60;;;18.40;99.90;;;;;;5092049;28;20223;-81
2022/08/21 02:05:18;;;;;;;0.37;0.37;;;18.40;99.90;;;;;;5095226;28;20185;-81
2022/08/21 02:07:48;;;;;;;0.20;0.20;;;18.40;99.90;;;;;;5092792;28;20202;-81
2022/08/21 02:10:16;;;;;;;0.30;0.30;;;18.40;99.90;;;;;;5097961;28;20203;-81
2022/08/21 02:12:42;;;;;;;0.20;0.20;;;18.40;99.90;;;;;;5086646;28;20179;-81
2022/08/21 02:15:09;;;;;;;0.23;0.23;;;18.40;99.90;;;;;;5078303;28;20185;-81
2022/08/21 02:17:46;;;;;;;0.90;0.90;;;18.40;99.90;;;;;;5091965;28;20209;-81
2022/08/21 02:20:28;;;;;;;0.80;0.40;;;18.30;99.90;;;;;;5099744;28;20191;-81
2022/08/21 02:22:54;;;;;;;0.20;0.20;;;18.30;99.90;;;;;;5090000;28;20183;-81
2022/08/21 02:25:22;;;;;;;0.30;0.30;;;18.30;99.90;;;;;;5088207;28;20280;-81
2022/08/21 02:27:48;;;;;;;0.73;0.30;;;18.30;99.90;;;;;;5082094;28;20216;-81
2022/08/21 02:30:21;;;;;;;0.40;0.40;;;18.30;99.90;;;;;;5087502;28;20604;-81
2022/08/21 02:32:47;;;;;;;0.23;0.23;;;18.30;99.90;;;;;;5090114;28;20256;-81
2022/08/21 02:35:13;;;;;;;0.30;0.30;;;18.30;99.90;;;;;;5089339;28;20256;-82
2022/08/21 02:38:01;;;;;;;0.27;0.27;;;18.30;99.90;;;;;;5093034;28;20207;-81
2022/08/21 02:40:32;;;;;;;0.40;0.40;;;18.30;99.90;;;;;;5090269;28;20280;-81
2022/08/21 02:42:58;;;;;;;0.37;0.37;;;18.30;99.90;;;;;;5088078;28;20195;-81
2022/08/21 02:45:24;;;;;;;0.30;0.30;;;18.30;99.90;;;;;;5095288;28;20269;-81
2022/08/21 02:47:51;;;;;;;3.13;1.23;;;18.30;99.90;;;;;;5088126;28;20231;-81
2022/08/21 02:50:21;;;;;;;0.20;0.20;;;18.30;99.90;;;;;;5084114;28;20271;-81
2022/08/21 02:52:46;;;;;;;1.50;0.50;;;18.30;99.90;;;;;;5090668;28;20190;-81
2022/08/21 02:55:12;;;;;;;0.33;0.33;;;18.20;99.90;;;;;;5094821;28;20188;-82
2022/08/21 02:57:38;;;;;;;1.13;0.30;;;18.20;99.90;;;;;;5088249;28;20234;-81
2022/08/21 03:00:05;;;;;;;0.43;0.43;;;18.20;99.90;;;;;;5096503;28;20184;-81
2022/08/21 03:02:31;;;;;;;0.50;0.50;;;18.20;99.90;;;;;;5092195;28;20291;-81
2022/08/21 03:04:56;;;;;;;0.80;0.80;;;18.30;99.90;;;;;;5080637;28;20271;-81
2022/08/21 03:07:22;;;;;;;0.80;0.80;;;18.20;99.90;;;;;;5085028;28;20201;-81
2022/08/21 03:09:47;;;;;;;0.50;0.50;;;18.10;99.90;;;;;;5093160;28;20196;-81
2022/08/21 03:12:13;;;;;;;0.70;0.70;;;18.10;99.90;;;;;;5087825;28;20181;-81
2022/08/21 03:14:38;;;;;;;0.73;0.60;;;17.90;99.90;;;;;;5083836;28;20175;-82
2022/08/21 03:17:05;;;;;;;0.43;0.43;;;17.80;99.90;;;;;;5083185;28;20681;-81
2022/08/21 03:19:30;;;;;;;0.87;0.87;;;17.70;99.90;;;;;;5083132;28;20657;-81
2022/08/21 03:21:56;;;;;;;0.77;0.77;;;17.60;99.90;;;;;;5099954;28;20187;-81
2022/08/21 03:24:21;;;;;;;0.90;0.90;;;17.50;99.90;;;;;;5084345;28;20197;-81
2022/08/21 03:26:47;;;;;;;2.33;0.30;;;17.50;99.90;;;;;;5089348;28;20207;-81
2022/08/21 03:29:12;;;;;;;0.67;0.67;;;17.50;99.90;;;;;;5079710;28;20915;-81
2022/08/21 03:31:38;;;;;;;0.63;0.30;;;17.40;99.90;;;;;;5085440;28;20195;-81
2022/08/21 03:34:03;;;;;;;1.80;1.70;;;17.40;99.90;;;;;;5084941;28;20181;-81
2022/08/21 03:36:29;;;;;;;0.23;0.23;;;17.50;99.90;;;;;;5091620;28;20688;-81
2022/08/21 03:38:54;;;;;;;0.40;0.40;;;17.40;99.90;;;;;;5091934;28;20211;-81
2022/08/21 03:41:20;;;;;;;0.70;0.70;;;17.40;99.90;;;;;;5074818;28;20189;-81
2022/08/21 03:43:45;;;;;;;0.33;0.33;;;17.40;99.90;;;;;;5088924;28;20191;-81
2022/08/21 03:46:11;;;;;;;0.33;0.30;;;17.40;99.90;;;;;;5080284;28;20223;-81
2022/08/21 03:48:37;;;;;;;0.30;0.30;;;17.40;99.90;;;;;;5087236;28;20241;-80
2022/08/21 03:51:03;;;;;;;0.43;0.43;;;17.50;99.90;;;;;;5090817;28;20229;-81
2022/08/21 03:53:30;;;;;;;0.23;0.23;;;17.40;99.90;;;;;;5081410;28;20199;-80
2022/08/21 03:55:56;;;;;;;0.17;0.17;;;17.50;99.90;;;;;;5077713;28;20189;-81
2022/08/21 03:58:24;;;;;;;2.73;0.50;;;17.50;99.90;;;;;;5080778;28;20224;-81
2022/08/21 04:00:53;;;;;;;1.30;0.47;;;17.50;99.90;;;;;;5081601;28;20184;-81
2022/08/21 04:03:19;;;;;;;0.40;0.40;;;17.50;99.90;;;;;;5074288;28;20181;-81
2022/08/21 04:05:45;;;;;;;1.60;0.80;;;17.60;99.90;;;;;;5090344;28;20196;-80
2022/08/21 04:08:12;;;;;;;2.20;0.53;;;17.50;99.90;;;;;;5075608;28;20198;-80
2022/08/21 04:10:39;;;;;;;0.37;0.37;;;17.50;99.90;;;;;;5102898;28;20655;-81
2022/08/21 04:13:06;;;;;;;0.50;0.50;;;17.50;99.90;;;;;;5089039;28;20268;-81
2022/08/21 04:15:33;;;;;;;0.63;0.60;;;17.40;99.90;;;;;;5088726;28;20222;-81
2022/08/21 04:17:58;;;;;;;1.07;0.30;;;17.40;99.90;;;;;;5082164;28;20200;-81
2022/08/21 04:20:24;;;;;;;0.30;0.30;;;17.40;99.90;;;;;;5086497;28;20301;-81
2022/08/21 04:22:51;;;;;;;0.50;0.40;;;17.40;99.90;;;;;;5074117;28;20281;-80
2022/08/21 04:25:18;;;;;;;0.33;0.33;;;17.40;99.90;;;;;;5082748;28;20195;-80
2022/08/21 04:27:44;;;;;;;0.33;0.33;;;17.30;99.90;;;;;;5083604;28;20235;-81
2022/08/21 04:30:11;;;;;;;0.33;0.33;;;17.40;99.90;;;;;;5085385;28;20235;-81
2022/08/21 04:32:37;;;;;;;1.90;0.80;;;17.30;99.90;;;;;;5086960;28;20184;-81
2022/08/21 04:35:07;;;;;;;0.30;0.30;;;17.40;99.90;;;;;;5080613;28;20689;-81
2022/08/21 04:37:32;;;;;;;0.30;0.30;;;17.40;99.90;;;;;;5086823;28;20208;-81
2022/08/21 04:39:58;;;;;;;1.10;0.37;;;17.50;99.90;;;;;;5094768;28;20185;-81
2022/08/21 04:42:28;;;;;;;0.70;0.70;;;17.50;99.90;;;;;;5081755;28;20184;-81
2022/08/21 04:44:54;;;;;;;1.60;0.80;;;17.50;99.90;;;;;;5097711;28;20194;-81
2022/08/21 04:47:20;;;;;;;0.13;0.13;;;17.60;99.90;;;;;;5082672;28;20201;-81
2022/08/21 04:49:46;;;;;;;0.30;0.30;;;17.60;99.90;;;;;;5089299;28;20206;-80
2022/08/21 04:52:15;;;;;;;0.20;0.20;;;17.70;99.90;;;;;;5087983;28;20202;-81
2022/08/21 04:54:43;;;;;;;0.30;0.30;;;17.70;99.90;;;;;;5080477;28;20180;-80
2022/08/21 04:57:10;;;;;;;0.40;0.40;;;17.80;99.90;;;;;;5080335;28;20200;-80
2022/08/21 04:59:41;;;;;;;0.80;0.60;;;17.80;99.90;;;;;;5092814;28;20221;-81
2022/08/21 05:02:09;;;;;;;0.40;0.40;;;17.90;99.90;;;;;;5076984;28;20206;-81
2022/08/21 05:04:38;;;;;;;0.43;0.43;;;17.90;99.90;;;;;;5093472;28;20184;-81
2022/08/21 05:07:06;;;;;;;0.50;0.50;;;18.00;99.90;;;;;;5083248;28;20745;-81
2022/08/21 05:09:33;;;;;;;0.53;0.40;;;18.00;99.90;;;;;;5090573;28;20209;-81
2022/08/21 05:12:00;;;;;;;0.57;0.57;;;18.00;99.90;;;;;;5083313;28;20174;-82
2022/08/21 05:14:27;;;;;;;0.20;0.20;;;18.10;99.90;;;;;;5089012;28;20192;-83
2022/08/21 05:16:52;;;;;;;0.47;0.47;;;18.20;99.90;;;;;;5082596;28;20255;-82
2022/08/21 05:19:18;;;;;;;0.30;0.30;;;18.20;99.90;;;;;;5093360;28;20283;-82
2022/08/21 05:21:46;;;;;;;0.30;0.30;;;18.30;99.90;;;;;;5075402;28;20679;-82
2022/08/21 05:24:12;;;;;;;1.30;0.60;;;18.30;99.90;;;;;;5086058;28;20183;-82
2022/08/21 05:26:38;;;;;;;0.37;0.37;;;18.30;99.90;;;;;;5089975;28;20734;-82
2022/08/21 05:29:04;;;;;;;0.43;0.43;;;18.40;99.90;;;;;;5082413;28;20332;-82
2022/08/21 05:31:30;;;;;;;0.77;0.77;;;18.40;99.90;;;;;;5099362;28;20185;-82
2022/08/21 05:33:56;;;;;;;0.60;0.60;;;18.50;99.90;;;;;;5089365;28;20177;-81
2022/08/21 05:36:22;;;;;;;2.57;0.50;;;18.50;99.90;;;;;;5095092;28;20276;-81
2022/08/21 05:38:48;;;;;;;0.63;0.50;;;18.50;99.90;;;;;;5088105;28;20225;-81
2022/08/21 05:41:13;;;;;;;0.60;0.60;;;18.50;99.90;;;;;;5082811;28;20204;-81
2022/08/21 05:43:39;;;;;;;1.13;0.93;;;18.50;99.90;;;;;;5098909;28;20180;-81
2022/08/21 05:46:06;;;;;;;0.50;0.40;;;18.50;99.90;;;;;;5086401;28;20207;-80
2022/08/21 05:48:33;;;;;;;1.13;0.90;;;18.50;99.90;;;;;;5104839;27;20587;-80
2022/08/21 05:51:05;;;;;;;0.40;0.40;;;18.50;99.90;;;;;;5087632;28;20176;-80
2022/08/21 05:53:30;;;;;;;0.40;0.40;;;18.40;99.90;;;;;;5085492;28;20188;-80
2022/08/21 05:55:56;;;;;;;0.50;0.50;;;18.50;99.90;;;;;;5093226;28;20195;-80
2022/08/21 05:58:25;;;;;;;2.33;0.63;;;18.60;99.90;;;;;;5087373;28;20984;-79
2022/08/21 06:00:52;;;;;;;0.50;0.50;;;18.60;99.90;;;;;;5087501;28;20248;-80
2022/08/21 06:03:21;;;;;;;0.47;0.47;;;18.70;99.90;;;;;;5082550;28;20185;-80
2022/08/21 06:05:47;;;;;;;1.30;0.40;;;18.60;99.90;;;;;;5093329;28;20718;-80
2022/08/21 06:08:15;;;;;;;0.30;0.30;;;18.70;99.90;;;;;;5085005;28;20188;-80
2022/08/21 06:10:41;;;;;;;0.43;0.23;;;18.80;99.90;;;;;;5081782;28;20181;-80
2022/08/21 06:13:06;;;;;;;0.33;0.33;;;18.80;99.90;;;;;;5074092;28;20234;-80
2022/08/21 06:15:32;;;;;;;0.40;0.40;;;19.00;99.90;;;;;;5080205;28;20578;-80
2022/08/21 06:17:58;;;;;;;0.30;0.30;;;19.00;99.90;;;;;;5083451;28;20297;-80
2022/08/21 06:20:23;;;;;;;0.20;0.20;;;19.10;99.90;;;;;;5088905;28;20683;-80
2022/08/21 06:22:49;;;;;;;0.70;0.60;;;19.20;99.90;;;;;;5092217;28;20184;-80
2022/08/21 06:25:14;;;;;;;1.03;0.53;;;19.30;99.90;;;;;;5073346;28;20186;-80
2022/08/21 06:27:40;;;;;;;4.90;0.63;;;19.30;99.90;;;;;;5082357;28;20295;-80
2022/08/21 06:30:07;;;;;;;0.27;0.27;;;19.40;99.90;;;;;;5081927;28;20208;-80
2022/08/21 06:32:33;;;;;;;0.90;0.37;;;19.60;99.90;;;;;;5082712;28;20541;-80
2022/08/21 06:34:58;;;;;;;1.10;0.70;;;19.70;99.90;;;;;;5082936;28;20203;-80
2022/08/21 06:37:24;;;;;;;0.50;0.33;;;19.80;99.90;;;;;;5088592;28;20201;-80
2022/08/21 06:39:49;;;;;;;0.30;0.30;;;19.90;99.90;;;;;;5091979;28;20554;-80
2022/08/21 06:42:16;;;;;;;0.37;0.37;;;20.10;99.90;;;;;;5087979;28;20208;-79
2022/08/21 06:44:42;;;;;;;1.40;0.60;;;20.20;99.90;;;;;;5078778;28;20319;-80
2022/08/21 06:47:08;;;;;;;0.83;0.57;;;20.30;99.90;;;;;;5085845;28;20199;-80
2022/08/21 06:49:34;;;;;;;0.40;0.40;;;20.50;99.90;;;;;;5077640;28;20282;-80
2022/08/21 06:52:00;;;;;;;0.20;0.20;;;20.70;99.90;;;;;;5088825;28;20267;-80
2022/08/21 06:54:26;;;;;;;1.23;0.70;;;20.90;99.90;;;;;;5097964;28;20264;-80
2022/08/21 06:56:51;;;;;;;0.27;0.27;;;21.00;99.90;;;;;;5095602;28;20212;-80
2022/08/21 06:59:17;;;;;;;0.40;0.40;;;21.10;99.90;;;;;;5085327;28;20189;-80
2022/08/21 07:01:43;;;;;;;0.33;0.33;;;21.10;99.90;;;;;;5093087;28;20180;-80
2022/08/21 07:04:08;;;;;;;0.47;0.43;;;21.40;99.90;;;;;;5081840;28;20206;-80
2022/08/21 07:06:34;;;;;;;1.03;0.47;;;21.40;99.90;;;;;;5084983;28;20215;-80
2022/08/21 07:09:01;;;;;;;0.23;0.23;;;21.60;99.90;;;;;;5087223;28;20720;-80
2022/08/21 07:11:26;;;;;;;0.77;0.77;;;21.70;99.90;;;;;;5081704;28;20863;-80
2022/08/21 07:13:54;;;;;;;0.47;0.40;;;21.60;99.90;;;;;;5100898;28;20172;-80
2022/08/21 07:16:20;;;;;;;1.00;0.90;;;21.60;99.90;;;;;;5084163;28;20222;-80
2022/08/21 07:18:46;;;;;;;0.70;0.70;;;22.00;99.90;;;;;;5083673;28;20187;-80
2022/08/21 07:21:11;;;;;;;0.40;0.40;;;22.20;99.90;;;;;;5077863;28;20558;-80
2022/08/21 07:23:44;;;;;;;0.67;0.50;;;22.30;99.90;;;;;;5078613;28;20255;-80
2022/08/21 07:26:11;;;;;;;0.80;0.80;;;22.60;99.90;;;;;;5085349;28;20223;-80
2022/08/21 07:28:36;;;;;;;0.73;0.60;;;22.90;99.90;;;;;;5084888;28;20249;-80
2022/08/21 07:31:03;;;;;;;0.67;0.67;;;23.00;99.90;;;;;;5088513;28;20630;-80
2022/08/21 07:33:31;;;;;;;0.73;0.73;;;23.10;99.90;;;;;;5086078;28;20207;-80
2022/08/21 07:35:56;;;;;;;0.57;0.57;;;23.30;99.90;;;;;;5075254;28;20203;-80
2022/08/21 07:38:23;;;;;;;0.30;0.30;;;23.40;99.90;;;;;;5081238;28;20181;-80
2022/08/21 07:40:50;;;;;;;0.83;0.40;;;23.60;99.90;;;;;;5089418;28;20181;-80
2022/08/21 07:43:17;;;;;;;0.60;0.40;;;23.70;99.90;;;;;;5087798;28;20180;-80
2022/08/21 07:45:43;;;;;;;0.20;0.20;;;23.90;99.90;;;;;;5082303;28;20188;-80
2022/08/21 07:48:09;;;;;;;0.50;0.50;;;24.10;99.90;;;;;;5083893;28;20233;-80
2022/08/21 07:50:35;;;;;;;2.23;0.87;;;24.20;99.90;;;;;;5084244;28;20211;-80
2022/08/21 07:53:00;;;;;;;0.67;0.60;;;24.10;99.90;;;;;;5086196;28;20189;-80
2022/08/21 07:55:26;;;;;;;1.43;1.10;;;24.20;99.90;;;;;;5084674;28;20176;-80
2022/08/21 07:57:52;;;;;;;0.60;0.60;;;24.30;99.90;;;;;;5079692;28;20193;-80
2022/08/21 08:00:23;;;;;;;0.50;0.50;;;24.40;99.90;;;;;;5087457;28;20202;-83
2022/08/21 08:02:50;;;;;;;0.40;0.40;;;24.40;99.90;;;;;;5075477;28;20243;-80
2022/08/21 08:05:18;;;;;;;0.47;0.47;;;24.30;99.90;;;;;;5088790;28;20260;-80
2022/08/21 08:07:44;;;;;;;1.33;0.90;;;24.50;99.90;;;;;;5081196;28;20199;-80
2022/08/21 08:10:10;;;;;;;0.63;0.57;;;24.60;99.90;;;;;;5086768;28;20261;-80
2022/08/21 08:12:38;;;;;;;0.70;0.70;;;24.80;99.90;;;;;;5094736;28;20189;-80
2022/08/21 08:15:05;;;;;;;0.50;0.50;;;24.90;99.90;;;;;;5080082;28;20181;-80
2022/08/21 08:17:32;;;;;;;0.67;0.67;;;25.30;99.90;;;;;;5088870;28;20200;-80
2022/08/21 08:19:58;;;;;;;1.03;0.90;;;25.30;99.90;;;;;;5084565;28;20211;-80
2022/08/21 08:22:24;;;;;;;0.60;0.60;;;25.40;99.90;;;;;;5099310;28;20226;-80
2022/08/21 08:24:51;;;;;;;0.50;0.50;;;25.50;99.90;;;;;;5081179;28;20180;-80
2022/08/21 08:27:17;;;;;;;0.90;0.90;;;25.70;99.90;;;;;;5084319;28;20200;-80
2022/08/21 08:29:44;;;;;;;0.77;0.77;;;25.70;99.90;;;;;;5085284;28;21198;-80
2022/08/21 08:32:10;;;;;;;0.70;0.70;;;25.70;99.90;;;;;;5092142;28;20180;-80
2022/08/21 08:34:38;;;;;;;0.70;0.67;;;25.80;99.90;;;;;;5087322;28;20601;-80
2022/08/21 08:37:05;;;;;;;0.53;0.53;;;26.00;99.90;;;;;;5097202;28;20566;-80
2022/08/21 08:39:31;;;;;;;0.80;0.80;;;26.20;99.90;;;;;;5087927;28;20216;-80
2022/08/21 08:42:09;;;;;;;0.50;0.50;;;26.20;99.90;;;;;;5090156;28;20168;-80
2022/08/21 08:44:36;;;;;;;0.80;0.80;;;26.40;99.90;;;;;;5086736;28;20183;-80
2022/08/21 08:47:01;;;;;;;0.67;0.67;;;26.50;99.90;;;;;;5097341;28;20199;-80
2022/08/21 08:49:34;;;;;;;0.70;0.70;;;26.40;99.90;;;;;;5085850;28;20237;-80
2022/08/21 08:52:06;;;;;;;2.50;1.00;;;26.50;99.90;;;;;;5093681;28;20591;-80
2022/08/21 08:54:42;;;;;;;0.50;0.50;;;26.60;99.90;;;;;;5085455;28;20536;-80
2022/08/21 08:57:15;;;;;;;0.57;0.57;;;26.70;99.90;;;;;;5099036;28;20623;-80
2022/08/21 08:59:46;;;;;;;0.70;0.70;;;26.60;99.90;;;;;;5092447;28;20176;-80
2022/08/21 09:02:13;;;;;;;0.87;0.70;;;26.80;99.90;;;;;;5099469;28;20213;-80
2022/08/21 09:04:40;;;;;;;2.07;0.80;;;27.00;99.90;;;;;;5090471;28;20254;-80
2022/08/21 09:07:30;;;;;;;0.60;0.60;;;26.90;99.90;;;;;;5093942;28;20197;-80
2022/08/21 09:10:18;;;;;;;0.43;0.43;;;26.90;99.90;;;;;;5099284;28;20201;-80
2022/08/21 09:12:46;;;;;;;0.57;0.57;;;27.00;99.90;;;;;;5077752;28;20172;-80
2022/08/21 09:15:20;;;;;;;0.37;0.37;;;27.30;99.90;;;;;;5089525;28;20189;-80
2022/08/21 09:18:20;;;;;;;2.20;1.20;;;27.50;99.90;;;;;;5092711;28;20204;-80
2022/08/21 09:20:51;;;;;;;0.73;0.70;;;27.40;99.90;;;;;;5082809;28;20180;-80
2022/08/21 09:23:42;;;;;;;0.50;0.50;;;27.20;99.90;;;;;;5091566;28;20185;-80
2022/08/21 09:26:15;;;;;;;0.50;0.30;;;27.30;99.90;;;;;;5083728;28;20243;-80
2022/08/21 09:28:41;;;;;;;0.43;0.43;;;27.50;99.90;;;;;;5098334;28;20187;-80
2022/08/21 09:31:15;;;;;;;0.57;0.57;;;27.50;99.90;;;;;;5090814;28;20185;-80
2022/08/21 09:33:40;;;;;;;0.87;0.87;;;27.70;99.90;;;;;;5087016;28;20176;-80
2022/08/21 09:36:06;;;;;;;1.07;0.93;;;27.50;99.90;;;;;;5088404;28;20243;-80
2022/08/21 09:38:36;;;;;;;1.20;1.03;;;27.60;99.90;;;;;;5087529;28;20230;-80
2022/08/21 09:41:06;;;;;;;0.50;0.47;;;27.70;99.90;;;;;;5084994;28;20181;-80
2022/08/21 09:43:33;;;;;;;0.97;0.93;;;28.00;99.90;;;;;;5094524;28;20177;-80
2022/08/21 09:46:21;;;;;;;0.83;0.83;;;28.00;99.90;;;;;;5090384;28;20184;-80
2022/08/21 09:48:49;;;;;;;0.50;0.40;;;28.10;99.90;;;;;;5086886;28;20203;-80
2022/08/21 09:51:29;;;;;;;1.10;0.70;;;27.90;99.90;;;;;;5083419;28;20559;-80
2022/08/21 09:54:13;;;;;;;0.40;0.40;;;27.30;99.90;;;;;;5087896;28;20198;-80
2022/08/21 09:59:41;;;;;;;0.53;0.53;;;27.30;99.90;;;;;;5084071;28;20264;-80
2022/08/21 10:02:29;;;;;;;0.70;0.70;;;27.40;99.90;;;;;;5081963;28;20181;-80
2022/08/21 10:04:59;;;;;;;0.30;0.30;;;27.90;99.90;;;;;;5095706;28;20199;-80
2022/08/21 10:07:29;;;;;;;0.40;0.40;;;28.10;99.90;;;;;;5089058;28;20263;-80
2022/08/21 10:09:59;;;;;;;0.52;0.52;;;27.90;99.90;;;;;;5090251;28;20279;-80
2022/08/21 10:12:43;;;;;;;3.35;0.93;;;27.80;99.90;;;;;;5091050;28;20180;-80
2022/08/21 10:15:13;;;;;;;0.70;0.70;;;27.80;99.90;;;;;;5085989;28;20169;-80
2022/08/21 10:17:57;;;;;;;0.40;0.40;;;27.90;99.90;;;;;;5085041;28;20201;-80
2022/08/21 10:20:43;;;;;;;0.40;0.40;;;27.60;99.90;;;;;;5080971;28;20185;-80
2022/08/21 10:23:28;;;;;;;0.30;0.30;;;27.90;99.90;;;;;;5101073;28;20267;-80
2022/08/21 10:26:10;;;;;;;0.70;0.40;;;28.50;99.90;;;;;;5078475;28;20537;-80
2022/08/21 10:29:03;;;;;;;0.45;0.40;;;28.60;99.90;;;;;;5081005;28;20201;-80
2022/08/21 10:32:04;;;;;;;1.73;0.82;;;28.90;99.90;;;;;;5083996;28;20186;-80
2022/08/21 10:34:56;;;;;;;0.88;0.88;;;28.80;99.90;;;;;;5073101;28;20184;-80
2022/08/21 10:37:37;;;;;;;0.50;0.50;;;28.70;99.90;;;;;;5093396;28;20211;-80
2022/08/21 10:40:12;;;;;;;1.95;0.70;;;28.70;99.90;;;;;;5087845;28;20194;-80
2022/08/21 10:43:08;;;;;;;0.65;0.40;;;28.80;99.90;;;;;;5080022;28;20208;-80
2022/08/21 10:45:48;;;;;;;1.55;1.00;;;28.90;99.90;;;;;;5081540;28;20668;-80
2022/08/21 10:48:40;;;;;;;1.23;0.77;;;28.90;99.90;;;;;;5086174;28;20219;-80
2022/08/21 10:51:19;;;;;;;0.90;0.90;;;29.30;99.90;;;;;;5075246;28;20193;-80
2022/08/21 10:54:03;;;;;;;0.75;0.60;;;29.50;99.90;;;;;;5087971;28;20207;-81
2022/08/21 10:56:31;;;;;;;1.08;1.05;;;29.50;99.90;;;;;;5082980;28;20200;-80
2022/08/21 10:59:02;;;;;;;0.40;0.40;;;29.50;99.90;;;;;;5093967;28;20179;-80
2022/08/21 11:01:37;;;;;;;0.60;0.60;;;29.60;99.90;;;;;;5081753;28;21996;-80
2022/08/21 11:04:15;;;;;;;0.68;0.68;;;29.50;99.90;;;;;;5095926;28;20191;-80
2022/08/21 11:07:00;;;;;;;0.95;0.85;;;29.60;99.90;;;;;;5086443;28;20247;-80
2022/08/21 11:09:27;;;;;;;0.70;0.65;;;29.50;99.90;;;;;;5082691;28;20204;-80
2022/08/21 11:12:01;;;;;;;2.28;0.73;;;29.40;99.90;;;;;;5089234;28;20188;-80
2022/08/21 11:14:54;;;;;;;0.68;0.40;;;29.10;99.90;;;;;;5086260;28;20189;-80
2022/08/21 11:17:27;;;;;;;0.60;0.60;;;29.10;99.90;;;;;;5089951;28;20207;-80
2022/08/21 11:20:16;;;;;;;3.15;0.73;;;29.20;99.90;;;;;;5079963;28;20187;-80
2022/08/21 11:22:50;;;;;;;0.52;0.52;;;29.50;99.90;;;;;;5075823;28;20279;-80
2022/08/21 11:25:25;;;;;;;0.52;0.52;;;29.30;99.90;;;;;;5079840;28;20655;-80
2022/08/21 11:28:00;;;;;;;0.60;0.60;;;29.10;99.90;;;;;;5087967;28;20203;-80
2022/08/21 11:30:39;;;;;;;0.50;0.50;;;29.20;99.90;;;;;;5091007;28;20542;-81
2022/08/21 11:33:38;;;;;;;1.00;0.82;;;28.70;99.90;;;;;;5095657;28;20203;-81
2022/08/21 11:36:22;;;;;;;1.75;0.82;;;28.00;99.90;;;;;;5101695;28;20176;-81
2022/08/21 11:38:59;;;;;;;2.90;0.85;;;27.40;99.90;;;;;;5076538;28;20181;-80
2022/08/21 11:41:30;;;;;;;0.35;0.35;;;27.90;99.90;;;;;;5098036;28;20188;-80
2022/08/21 11:44:04;;;;;;;1.23;0.60;;;28.20;99.90;;;;;;5090900;28;20180;-81
2022/08/21 11:46:49;;;;;;;0.77;0.40;;;28.60;99.90;;;;;;5089993;28;20211;-80
2022/08/21 11:49:36;;;;;;;0.52;0.52;;;29.10;99.90;;;;;;5084456;28;20208;-80
2022/08/21 11:52:09;;;;;;;0.45;0.45;;;29.60;99.90;;;;;;5084703;28;20188;-81
2022/08/21 11:54:46;;;;;;;0.70;0.70;;;29.60;99.90;;;;;;5086424;28;20182;-80
2022/08/21 11:57:31;;;;;;;1.17;0.65;;;29.80;99.90;;;;;;5091322;28;20260;-80
2022/08/21 12:00:16;;;;;;;0.30;0.30;;;29.50;99.90;;;;;;5094551;28;20207;-80
2022/08/21 12:02:48;;;;;;;0.98;0.47;;;29.80;99.90;;;;;;5096017;28;20227;-80
2022/08/21 12:05:23;;;;;;;0.55;0.55;;;30.00;99.90;;;;;;5092040;28;20187;-81
2022/08/21 12:08:01;;;;;;;0.55;0.55;;;29.70;99.90;;;;;;5092325;28;20207;-80
2022/08/21 12:10:34;;;;;;;0.55;0.55;;;29.90;99.90;;;;;;5092572;28;20558;-81
2022/08/21 12:13:29;;;;;;;0.60;0.32;;;29.50;99.90;;;;;;5093856;28;20264;-81
2022/08/21 12:16:06;;;;;;;1.45;1.35;;;29.00;99.90;;;;;;5069310;28;20184;-81
2022/08/21 12:18:33;;;;;;;0.80;0.80;;;29.10;99.90;;;;;;5093415;28;20642;-81
2022/08/21 12:21:17;;;;;;;0.50;0.50;;;29.40;99.90;;;;;;5078010;28;20176;-81
2022/08/21 12:24:00;;;;;;;0.57;0.52;;;29.60;99.90;;;;;;5089963;28;20182;-81
2022/08/21 12:26:51;;;;;;;1.38;0.43;;;29.70;99.90;;;;;;5093412;28;20219;-81
2022/08/21 12:29:23;;;;;;;0.43;0.43;;;29.40;99.90;;;;;;5083003;28;20203;-80
2022/08/21 12:31:54;;;;;;;0.90;0.82;;;30.10;99.90;;;;;;5089387;28;20173;-81
2022/08/21 12:34:24;;;;;;;0.73;0.70;;;30.20;99.90;;;;;;5084085;28;20674;-81
2022/08/21 12:36:58;;;;;;;0.55;0.55;;;30.20;99.90;;;;;;5085207;28;20193;-81
2022/08/21 12:39:27;;;;;;;0.98;0.85;;;30.20;99.90;;;;;;5081539;28;20283;-80
2022/08/21 12:42:22;;;;;;;0.60;0.60;;;30.40;99.90;;;;;;5084564;28;20184;-80
2022/08/21 12:44:54;;;;;;;0.20;0.20;;;30.40;99.90;;;;;;5085924;28;20187;-81
2022/08/21 12:47:59;;;;;;;1.27;0.47;;;30.50;99.90;;;;;;5083025;28;20689;-80
2022/08/21 12:50:37;;;;;;;0.30;0.30;;;30.70;99.90;;;;;;5068841;28;20821;-80
2022/08/21 12:53:21;;;;;;;0.50;0.50;;;30.90;99.90;;;;;;5091341;28;20187;-80
2022/08/21 12:55:47;;;;;;;0.40;0.40;;;31.00;99.90;;;;;;5087663;28;20184;-80
2022/08/21 12:58:21;;;;;;;0.65;0.65;;;31.10;99.90;;;;;;5082455;28;20188;-80
2022/08/21 13:01:07;;;;;;;0.55;0.55;;;31.40;99.90;;;;;;5089834;28;20271;-80
2022/08/21 13:03:35;;;;;;;0.45;0.40;;;31.50;99.90;;;;;;5093294;28;20189;-80
2022/08/21 13:06:03;;;;;;;0.65;0.65;;;31.60;99.90;;;;;;5093223;28;20262;-80